createdAt,value
2019-03-13T00:00:16.015Z,97921.07
2019-03-13T00:02:46.078Z,97917.05
2019-03-13T00:05:15.686Z,97940.31
2019-03-13T00:07:44.845Z,97957.34
2019-03-13T00:10:14.912Z,97957.25
2019-03-13T00:12:49.258Z,97949.10
2019-03-13T00:15:19.023Z,97941.22
2019-03-13T00:17:48.661Z,97957.25
2019-03-13T00:20:17.844Z,97957.65
2019-03-13T00:22:47.881Z,97963.48
2019-03-13T00:25:17.367Z,97983.56
2019-03-13T00:27:47.385Z,98006.26
2019-03-13T00:30:16.571Z,98009.56
2019-03-13T00:32:46.045Z,98019.13
2019-03-13T00:35:15.524Z,98029.27
2019-03-13T00:37:52.115Z,98044.28
2019-03-13T00:40:21.919Z,98053.84
2019-03-13T00:42:54.825Z,98055.53
2019-03-13T00:45:29.129Z,98047.48
2019-03-13T00:47:59.066Z,98055.16
2019-03-13T00:50:30.485Z,98065.77
2019-03-13T00:52:59.654Z,98065.48
2019-03-13T00:55:28.852Z,98070.44
2019-03-13T00:57:58.355Z,98075.14
2019-03-13T01:00:48.648Z,98093.31
2019-03-13T01:03:41.894Z,98092.30
2019-03-13T01:06:22.086Z,98102.70
2019-03-13T01:08:53.064Z,98081.21
2019-03-13T01:11:23.323Z,98081.98
2019-03-13T01:13:53.780Z,98088.55
2019-03-13T01:16:22.961Z,98104.27
2019-03-13T01:18:53.142Z,98097.05
2019-03-13T01:21:25.761Z,98096.30
2019-03-13T01:23:55.190Z,98101.37
2019-03-13T01:26:24.390Z,98097.99
2019-03-13T01:29:04.383Z,98103.86
2019-03-13T01:32:00.057Z,98109.58
2019-03-13T01:34:37.668Z,98105.27
2019-03-13T01:37:06.838Z,98116.29
2019-03-13T01:39:36.284Z,98110.11
2019-03-13T01:42:06.248Z,98135.16
2019-03-13T01:44:40.728Z,98138.06
2019-03-13T01:47:11.138Z,98129.72
2019-03-13T01:49:43.115Z,98132.34
2019-03-13T01:52:12.293Z,98135.44
2019-03-13T01:54:42.024Z,98141.34
2019-03-13T01:57:14.006Z,98140.13
2019-03-13T01:59:44.451Z,98147.25
2019-03-13T02:02:14.640Z,98153.71
2019-03-13T02:04:44.718Z,98158.68
2019-03-13T02:07:14.963Z,98164.77
2019-03-13T02:09:46.242Z,98171.42
2019-03-13T02:12:20.164Z,98179.58
2019-03-13T02:14:51.733Z,98194.20
2019-03-13T02:17:21.480Z,98185.86
2019-03-13T02:19:51.006Z,98196.41
2019-03-13T02:22:21.831Z,98182.30
2019-03-13T02:24:54.083Z,98193.86
2019-03-13T02:27:22.801Z,98205.11
2019-03-13T02:29:52.237Z,98212.05
2019-03-13T02:32:21.710Z,98214.48
2019-03-13T02:34:51.136Z,98209.80
2019-03-13T02:37:20.603Z,98209.08
2019-03-13T02:39:49.787Z,98199.95
2019-03-13T02:42:20.052Z,98213.64
2019-03-13T02:44:52.719Z,98205.77
2019-03-13T02:47:23.895Z,98203.80
2019-03-13T02:49:53.341Z,98207.32
2019-03-13T02:52:22.528Z,98211.39
2019-03-13T02:54:52.278Z,98207.75
2019-03-13T02:57:22.030Z,98225.31
2019-03-13T02:59:51.724Z,98214.91
2019-03-13T03:02:34.112Z,98216.69
2019-03-13T03:05:04.952Z,98228.50
2019-03-13T03:07:34.506Z,98224.42
2019-03-13T03:10:04.379Z,98223.20
2019-03-13T03:12:35.234Z,98217.06
2019-03-13T03:15:08.910Z,98225.88
2019-03-13T03:17:38.862Z,98224.71
2019-03-13T03:20:12.759Z,98223.06
2019-03-13T03:22:42.165Z,98218.84
2019-03-13T03:25:12.454Z,98220.35
2019-03-13T03:27:42.801Z,98211.03
2019-03-13T03:30:16.756Z,98209.90
2019-03-13T03:32:47.004Z,98203.91
2019-03-13T03:35:21.685Z,98215.48
2019-03-13T03:37:51.467Z,98210.56
2019-03-13T03:40:23.297Z,98210.94
2019-03-13T03:42:52.934Z,98214.07
2019-03-13T03:45:22.454Z,98203.11
2019-03-13T03:47:51.581Z,98203.39
2019-03-13T03:50:21.253Z,98192.34
2019-03-13T03:52:50.680Z,98196.36
2019-03-13T03:55:21.677Z,98202.25
2019-03-13T03:57:51.541Z,98203.25
2019-03-13T04:00:21.726Z,98211.05
2019-03-13T04:02:51.179Z,98217.09
2019-03-13T04:05:22.409Z,98211.58
2019-03-13T04:07:52.412Z,98223.23
2019-03-13T04:10:21.862Z,98211.44
2019-03-13T04:12:51.303Z,98219.16
2019-03-13T04:15:20.730Z,98218.41
2019-03-13T04:17:49.894Z,98215.89
2019-03-13T04:20:20.334Z,98213.21
2019-03-13T04:22:49.858Z,98215.37
2019-03-13T04:25:37.661Z,98209.76
2019-03-13T04:28:07.447Z,98210.03
2019-03-13T04:30:37.161Z,98211.81
2019-03-13T04:33:06.869Z,98222.50
2019-03-13T04:35:36.080Z,98210.78
2019-03-13T04:38:05.517Z,98214.52
2019-03-13T04:40:36.585Z,98200.01
2019-03-13T04:43:09.109Z,98209.56
2019-03-13T04:45:38.558Z,98207.78
2019-03-13T04:48:08.192Z,98206.94
2019-03-13T04:50:37.706Z,98212.19
2019-03-13T04:53:07.132Z,98211.86
2019-03-13T04:55:36.585Z,98216.70
2019-03-13T04:58:06.091Z,98207.47
2019-03-13T05:00:40.870Z,98205.13
2019-03-13T05:03:10.834Z,98210.55
2019-03-13T05:05:48.898Z,98199.54
2019-03-13T05:08:45.448Z,98214.21
2019-03-13T05:11:13.908Z,98202.27
2019-03-13T05:13:43.326Z,98208.68
2019-03-13T05:16:12.774Z,98210.94
2019-03-13T05:18:42.287Z,98222.83
2019-03-13T05:21:11.482Z,98215.05
2019-03-13T05:23:42.610Z,98209.85
2019-03-13T05:26:11.819Z,98205.83
2019-03-13T05:28:41.756Z,98209.95
2019-03-13T05:31:15.232Z,98210.98
2019-03-13T05:33:45.191Z,98209.16
2019-03-13T05:36:16.769Z,98234.41
2019-03-13T05:38:46.126Z,98225.08
2019-03-13T05:41:16.054Z,98231.55
2019-03-13T05:43:45.239Z,98237.40
2019-03-13T05:46:17.145Z,98242.27
2019-03-13T05:48:46.658Z,98238.53
2019-03-13T05:51:16.359Z,98234.39
2019-03-13T05:53:46.456Z,98225.79
2019-03-13T05:56:17.926Z,98246.20
2019-03-13T05:58:50.700Z,98251.94
2019-03-13T06:01:20.699Z,98247.53
2019-03-13T06:03:51.205Z,98255.11
2019-03-13T06:06:22.972Z,98257.22
2019-03-13T06:08:52.636Z,98255.00
2019-03-13T06:11:21.899Z,98252.16
2019-03-13T06:14:08.278Z,98252.05
2019-03-13T06:16:38.877Z,98252.57
2019-03-13T06:19:08.121Z,98250.73
2019-03-13T06:21:37.541Z,98264.80
2019-03-13T06:24:07.761Z,98260.87
2019-03-13T06:26:36.945Z,98262.94
2019-03-13T06:29:06.876Z,98256.47
2019-03-13T06:31:39.313Z,98260.76
2019-03-13T06:34:11.504Z,98265.16
2019-03-13T06:36:42.983Z,98273.08
2019-03-13T06:39:12.501Z,98262.02
2019-03-13T06:41:42.012Z,98269.50
2019-03-13T06:44:11.221Z,98263.23
2019-03-13T06:46:41.000Z,98269.50
2019-03-13T06:49:14.235Z,98265.77
2019-03-13T06:51:45.940Z,98271.77
2019-03-13T06:54:16.472Z,98271.72
2019-03-13T06:56:54.142Z,98268.77
2019-03-13T06:59:31.421Z,98266.88
2019-03-13T07:02:30.765Z,98271.14
2019-03-13T07:05:13.281Z,98261.67
2019-03-13T07:08:04.330Z,98267.77
2019-03-13T07:10:42.977Z,98266.03
2019-03-13T07:13:22.793Z,98274.70
2019-03-13T07:16:06.465Z,98277.47
2019-03-13T07:18:44.555Z,98278.88
2019-03-13T07:21:29.600Z,98265.94
2019-03-13T07:24:05.788Z,98268.20
2019-03-13T07:26:43.614Z,98273.20
2019-03-13T07:29:34.801Z,98274.19
2019-03-13T07:32:18.766Z,98278.31
2019-03-13T07:35:05.727Z,98277.38
2019-03-13T07:38:06.299Z,98280.38
2019-03-13T07:40:54.519Z,98282.85
2019-03-13T07:43:40.646Z,98271.31
2019-03-13T07:46:25.593Z,98276.66
2019-03-13T07:49:19.816Z,98273.57
2019-03-13T07:51:57.008Z,98278.11
2019-03-13T07:54:45.233Z,98272.29
2019-03-13T07:57:33.477Z,98279.08
2019-03-13T08:00:30.404Z,98270.63
2019-03-13T08:03:10.534Z,98262.91
2019-03-13T08:05:48.149Z,98272.51
2019-03-13T08:08:39.399Z,98272.57
2019-03-13T08:11:30.482Z,98282.83
2019-03-13T08:14:22.362Z,98280.77
2019-03-13T08:17:04.423Z,98273.26
2019-03-13T08:20:03.030Z,98274.41
2019-03-13T08:22:51.457Z,98256.67
2019-03-13T08:25:39.609Z,98258.67
2019-03-13T08:28:34.249Z,98260.71
2019-03-13T08:31:18.271Z,98266.55
2019-03-13T08:34:07.934Z,98269.25
2019-03-13T08:37:05.736Z,98263.84
2019-03-13T08:39:54.996Z,98264.25
2019-03-13T08:42:53.752Z,98247.38
2019-03-13T08:45:39.800Z,98250.97
2019-03-13T08:48:43.123Z,98247.15
2019-03-13T08:51:20.497Z,98240.97
2019-03-13T08:54:19.847Z,98238.36
2019-03-13T08:57:17.059Z,98226.73
2019-03-13T09:00:14.452Z,98208.69
2019-03-13T09:02:53.735Z,98226.45
2019-03-13T09:05:42.974Z,98208.70
2019-03-13T09:08:31.809Z,98222.69
2019-03-13T09:11:23.573Z,98200.54
2019-03-13T09:14:12.816Z,98229.83
2019-03-13T09:17:01.557Z,98227.75
2019-03-13T09:19:37.348Z,98202.22
2019-03-13T09:22:20.174Z,98193.31
2019-03-13T09:24:56.661Z,98202.42
2019-03-13T09:27:45.473Z,98214.33
2019-03-13T09:30:36.718Z,98194.94
2019-03-13T09:33:27.657Z,98197.09
2019-03-13T09:36:22.236Z,98179.64
2019-03-13T09:39:06.436Z,98188.16
2019-03-13T09:41:55.137Z,98168.50
2019-03-13T09:44:39.406Z,98173.73
2019-03-13T09:47:40.009Z,98184.54
2019-03-13T09:50:34.607Z,98169.38
2019-03-13T09:53:19.028Z,98177.30
2019-03-13T09:56:23.788Z,98156.97
2019-03-13T09:59:10.785Z,98160.30
2019-03-13T10:01:57.852Z,98169.50
2019-03-13T10:04:44.560Z,98172.47
2019-03-13T10:07:27.817Z,98140.27
2019-03-13T10:10:25.981Z,98153.52
2019-03-13T10:13:05.075Z,98165.33
2019-03-13T10:16:09.288Z,98168.89
2019-03-13T10:19:02.480Z,98171.77
2019-03-13T10:21:50.174Z,98162.29
2019-03-13T10:24:41.555Z,98176.39
2019-03-13T10:27:24.826Z,98164.09
2019-03-13T10:30:01.961Z,98180.09
2019-03-13T10:32:37.939Z,98180.83
2019-03-13T10:35:25.645Z,98175.77
2019-03-13T10:38:14.352Z,98124.17
2019-03-13T10:41:13.265Z,98161.67
2019-03-13T10:44:07.535Z,98160.52
2019-03-13T10:46:55.097Z,98161.40
2019-03-13T10:49:52.974Z,98150.73
2019-03-13T10:52:47.583Z,98145.30
2019-03-13T10:55:35.686Z,98153.84
2019-03-13T10:58:29.739Z,98146.87
2019-03-13T11:01:18.519Z,98152.77
2019-03-13T11:04:02.047Z,98119.92
2019-03-13T11:07:02.802Z,98122.92
2019-03-13T11:09:53.653Z,98138.97
2019-03-13T11:12:34.661Z,98124.87
2019-03-13T11:15:26.040Z,98131.94
2019-03-13T11:18:20.563Z,98131.36
2019-03-13T11:21:16.410Z,98141.94
2019-03-13T11:24:09.312Z,98156.94
2019-03-13T11:26:53.855Z,98152.36
2019-03-13T11:29:47.913Z,98150.73
2019-03-13T11:32:28.188Z,98145.80
2019-03-13T11:35:14.782Z,98143.36
2019-03-13T11:38:03.193Z,98149.83
2019-03-13T11:40:54.759Z,98138.28
2019-03-13T11:43:48.856Z,98141.80
2019-03-13T11:46:37.303Z,98114.45
2019-03-13T11:49:24.122Z,98130.47
2019-03-13T11:52:27.387Z,98097.39
2019-03-13T11:55:14.558Z,98095.19
2019-03-13T11:57:54.357Z,98073.68
2019-03-13T12:00:41.329Z,98135.19
2019-03-13T12:03:48.560Z,98062.27
2019-03-13T12:06:46.086Z,98056.58
2019-03-13T12:09:32.984Z,98070.03
2019-03-13T12:12:21.004Z,98070.48
2019-03-13T12:15:10.519Z,98046.52
2019-03-13T12:18:16.966Z,98069.73
2019-03-13T12:21:03.507Z,98050.24
2019-03-13T12:23:59.310Z,98058.61
2019-03-13T12:26:37.855Z,98035.12
2019-03-13T12:29:24.482Z,98045.72
2019-03-13T12:32:24.829Z,98030.12
2019-03-13T12:35:11.518Z,98020.86
2019-03-13T12:38:12.846Z,98031.50
2019-03-13T12:41:01.147Z,98037.37
2019-03-13T12:44:01.820Z,98029.05
2019-03-13T12:46:48.967Z,98019.82
2019-03-13T12:49:25.370Z,98028.84
2019-03-13T12:52:12.254Z,98013.27
2019-03-13T12:54:56.036Z,98025.17
2019-03-13T12:57:59.802Z,98033.50
2019-03-13T13:00:53.177Z,98007.98
2019-03-13T13:03:56.596Z,98024.63
2019-03-13T13:06:43.659Z,98023.68
2019-03-13T13:09:30.694Z,98022.44
2019-03-13T13:12:13.509Z,98028.64
2019-03-13T13:14:53.446Z,98025.79
2019-03-13T13:17:33.455Z,98036.70
2019-03-13T13:20:02.653Z,98029.58
2019-03-13T13:22:31.853Z,98028.67
2019-03-13T13:25:01.097Z,98026.81
2019-03-13T13:27:30.263Z,98023.52
2019-03-13T13:29:59.505Z,98013.52
2019-03-13T13:32:29.450Z,98028.60
2019-03-13T13:34:58.664Z,98027.47
2019-03-13T13:37:28.631Z,98009.74
2019-03-13T13:40:01.428Z,98019.22
2019-03-13T13:42:33.228Z,98003.02
2019-03-13T13:45:46.018Z,97993.33
2019-03-13T13:48:21.009Z,97987.00
2019-03-13T13:50:51.160Z,97994.64
2019-03-13T13:53:20.975Z,98003.64
2019-03-13T13:55:54.780Z,98006.96
2019-03-13T13:58:28.514Z,98024.44
2019-03-13T14:01:02.294Z,97988.31
2019-03-13T14:03:31.787Z,97999.47
2019-03-13T14:06:02.713Z,97996.25
2019-03-13T14:08:32.281Z,97998.42
2019-03-13T14:11:02.109Z,97985.56
2019-03-13T14:13:32.158Z,97996.78
2019-03-13T14:16:01.456Z,97990.74
2019-03-13T14:18:31.497Z,97996.09
2019-03-13T14:21:01.511Z,97997.70
2019-03-13T14:23:31.300Z,97981.67
2019-03-13T14:26:09.692Z,97984.61
2019-03-13T14:28:39.635Z,97981.89
2019-03-13T14:31:12.867Z,97988.30
2019-03-13T14:33:43.101Z,97990.80
2019-03-13T14:36:12.544Z,97987.73
2019-03-13T14:38:42.022Z,97991.09
2019-03-13T14:41:12.116Z,97973.50
2019-03-13T14:43:41.887Z,97974.30
2019-03-13T14:46:11.127Z,97992.43
2019-03-13T14:48:40.349Z,97983.29
2019-03-13T14:51:09.772Z,97974.25
2019-03-13T14:53:39.037Z,97981.98
2019-03-13T14:56:08.728Z,97970.86
2019-03-13T14:58:38.869Z,97962.92
2019-03-13T15:01:08.313Z,97985.92
2019-03-13T15:03:41.253Z,97962.81
2019-03-13T15:06:09.293Z,97966.57
2019-03-13T15:08:38.575Z,97964.13
2019-03-13T15:11:09.482Z,97978.72
2019-03-13T15:13:39.305Z,97977.41
2019-03-13T15:16:08.469Z,97985.06
2019-03-13T15:18:37.697Z,97979.63
2019-03-13T15:21:07.723Z,97990.59
2019-03-13T15:23:37.170Z,97970.01
2019-03-13T15:26:07.233Z,97987.27
2019-03-13T15:28:36.553Z,97994.53
2019-03-13T15:31:05.712Z,98011.94
2019-03-13T15:33:36.664Z,97989.51
2019-03-13T15:36:06.437Z,98011.48
2019-03-13T15:38:35.652Z,97990.73
2019-03-13T15:41:04.833Z,97997.95
2019-03-13T15:43:34.577Z,97993.94
2019-03-13T15:46:03.787Z,97994.41
2019-03-13T15:48:33.340Z,97985.58
2019-03-13T15:51:09.986Z,97977.53
2019-03-13T15:53:39.175Z,97983.47
2019-03-13T15:56:10.255Z,97989.56
2019-03-13T15:58:39.452Z,97992.61
2019-03-13T16:01:09.561Z,97990.66
2019-03-13T16:03:42.946Z,97990.89
2019-03-13T16:06:12.369Z,97988.28
2019-03-13T16:08:41.824Z,97996.23
2019-03-13T16:11:11.009Z,98005.04
2019-03-13T16:13:40.446Z,98005.80
2019-03-13T16:16:10.223Z,98001.85
2019-03-13T16:18:39.403Z,98002.05
2019-03-13T16:21:08.979Z,98010.30
2019-03-13T16:23:38.946Z,97995.45
2019-03-13T16:26:08.650Z,98000.52
2019-03-13T16:28:39.729Z,97999.10
2019-03-13T16:31:09.890Z,97996.92
2019-03-13T16:33:40.199Z,97991.77
2019-03-13T16:36:10.947Z,97973.89
2019-03-13T16:38:41.851Z,97975.30
2019-03-13T16:41:11.544Z,97981.59
2019-03-13T16:43:40.741Z,97985.25
2019-03-13T16:46:10.029Z,97977.83
2019-03-13T16:48:39.567Z,97994.88
2019-03-13T16:51:08.817Z,97986.42
2019-03-13T16:53:38.005Z,97980.06
2019-03-13T16:56:07.447Z,97994.73
2019-03-13T16:58:38.809Z,97997.06
2019-03-13T17:01:08.070Z,97997.17
2019-03-13T17:03:37.231Z,97997.26
2019-03-13T17:06:06.441Z,98005.84
2019-03-13T17:08:35.602Z,98002.64
2019-03-13T17:11:04.830Z,98009.95
2019-03-13T17:13:33.993Z,98006.02
2019-03-13T17:16:04.178Z,98002.88
2019-03-13T17:18:33.617Z,98001.06
2019-03-13T17:21:05.641Z,98008.78
2019-03-13T17:23:35.595Z,98010.83
2019-03-13T17:26:06.826Z,98003.73
2019-03-13T17:28:41.534Z,98008.57
2019-03-13T17:31:14.894Z,98003.16
2019-03-13T17:33:44.094Z,98004.00
2019-03-13T17:36:14.040Z,98013.56
2019-03-13T17:38:44.541Z,98015.72
2019-03-13T17:41:14.517Z,98026.80
2019-03-13T17:43:44.467Z,98020.17
2019-03-13T17:46:14.424Z,98013.77
2019-03-13T17:48:44.279Z,98016.02
2019-03-13T17:51:13.491Z,98028.89
2019-03-13T17:53:47.074Z,98025.22
2019-03-13T17:56:16.813Z,98029.91
2019-03-13T17:58:48.030Z,98039.20
2019-03-13T18:01:18.032Z,98059.47
2019-03-13T18:03:49.851Z,98030.47
2019-03-13T18:06:23.566Z,98037.88
2019-03-13T18:08:53.049Z,98041.35
2019-03-13T18:11:22.206Z,98056.37
2019-03-13T18:13:51.397Z,98048.79
2019-03-13T18:16:20.898Z,98054.31
2019-03-13T18:18:50.102Z,98052.80
2019-03-13T18:21:20.589Z,98050.64
2019-03-13T18:23:49.605Z,98071.11
2019-03-13T18:26:19.584Z,98061.27
2019-03-13T18:28:48.767Z,98070.91
2019-03-13T18:31:18.194Z,98087.73
2019-03-13T18:33:47.385Z,98077.70
2019-03-13T18:36:16.797Z,98086.50
2019-03-13T18:38:47.700Z,98093.20
2019-03-13T18:41:17.423Z,98100.55
2019-03-13T18:43:46.865Z,98119.54
2019-03-13T18:46:16.883Z,98116.45
2019-03-13T18:48:46.051Z,98118.88
2019-03-13T18:51:15.991Z,98121.09
2019-03-13T18:53:45.193Z,98130.88
2019-03-13T18:56:14.753Z,98140.20
2019-03-13T18:58:44.347Z,98135.90
2019-03-13T19:01:14.743Z,98150.66
2019-03-13T19:03:43.913Z,98154.53
2019-03-13T19:06:13.451Z,98151.16
2019-03-13T19:08:53.130Z,98163.98
2019-03-13T19:11:23.217Z,98157.02
2019-03-13T19:13:54.219Z,98144.78
2019-03-13T19:16:24.385Z,98163.41
2019-03-13T19:18:53.622Z,98156.70
2019-03-13T19:21:23.698Z,98153.94
2019-03-13T19:23:52.905Z,98167.45
2019-03-13T19:26:24.801Z,98171.82
2019-03-13T19:28:55.939Z,98169.67
2019-03-13T19:31:25.572Z,98178.83
2019-03-13T19:33:55.169Z,98181.86
2019-03-13T19:36:24.516Z,98184.08
2019-03-13T19:38:55.135Z,98196.64
2019-03-13T19:41:25.163Z,98203.66
2019-03-13T19:43:55.378Z,98217.58
2019-03-13T19:46:25.992Z,98202.41
2019-03-13T19:48:55.939Z,98214.70
2019-03-13T19:51:26.040Z,98222.48
2019-03-13T19:53:58.809Z,98226.75
2019-03-13T19:56:28.209Z,98230.39
2019-03-13T19:58:57.741Z,98238.28
2019-03-13T20:01:29.067Z,98237.44
2019-03-13T20:04:02.547Z,98249.95
2019-03-13T20:06:42.234Z,98231.65
2019-03-13T20:09:04.935Z,98224.73
2019-03-13T20:11:34.125Z,98205.34
2019-03-13T20:14:04.068Z,98195.27
2019-03-13T20:16:34.027Z,98205.16
2019-03-13T20:19:03.764Z,98219.01
2019-03-13T20:21:33.241Z,98219.48
2019-03-13T20:24:03.196Z,98211.38
2019-03-13T20:26:33.197Z,98206.78
2019-03-13T20:29:02.605Z,98226.04
2019-03-13T20:31:32.084Z,98231.45
2019-03-13T20:34:01.608Z,98222.49
2019-03-13T20:36:30.848Z,98229.97
2019-03-13T20:39:03.643Z,98227.89
2019-03-13T20:41:33.680Z,98243.44
2019-03-13T20:44:04.006Z,98243.27
2019-03-13T20:46:33.479Z,98238.83
2019-03-13T20:49:03.207Z,98241.34
2019-03-13T20:51:32.580Z,98254.75
2019-03-13T20:54:02.641Z,98243.41
2019-03-13T20:56:32.836Z,98244.48
2019-03-13T20:59:02.316Z,98246.26
2019-03-13T21:01:31.849Z,98243.27
2019-03-13T21:04:01.713Z,98250.91
2019-03-13T21:06:31.279Z,98246.36
2019-03-13T21:09:01.276Z,98255.14
2019-03-13T21:11:30.706Z,98261.47
2019-03-13T21:14:01.008Z,98254.46
2019-03-13T21:16:32.260Z,98266.24
2019-03-13T21:19:03.520Z,98267.25
2019-03-13T21:21:33.273Z,98254.16
2019-03-13T21:24:04.723Z,98261.77
2019-03-13T21:26:36.564Z,98266.08
2019-03-13T21:29:06.327Z,98265.48
2019-03-13T21:31:36.078Z,98263.37
2019-03-13T21:34:09.024Z,98266.79
2019-03-13T21:36:38.442Z,98273.25
2019-03-13T21:39:10.975Z,98272.23
2019-03-13T21:41:40.610Z,98267.21
2019-03-13T21:44:10.319Z,98272.53
2019-03-13T21:46:40.007Z,98274.55
2019-03-13T21:49:09.251Z,98273.24
2019-03-13T21:51:38.796Z,98278.86
2019-03-13T21:54:07.982Z,98279.53
2019-03-13T21:56:38.391Z,98277.93
2019-03-13T21:59:08.969Z,98272.60
2019-03-13T22:01:44.021Z,98278.44
2019-03-13T22:04:23.658Z,98276.66
2019-03-13T22:06:46.587Z,98287.47
2019-03-13T22:09:16.836Z,98288.61
2019-03-13T22:11:45.980Z,98296.45
2019-03-13T22:14:15.186Z,98297.78
2019-03-13T22:16:44.355Z,98306.68
2019-03-13T22:19:13.904Z,98301.82
2019-03-13T22:21:43.094Z,98310.31
2019-03-13T22:24:12.318Z,98317.42
2019-03-13T22:26:42.505Z,98317.63
2019-03-13T22:29:11.710Z,98324.52
2019-03-13T22:31:41.554Z,98321.09
2019-03-13T22:34:10.743Z,98320.96
2019-03-13T22:36:39.897Z,98324.65
2019-03-13T22:39:09.960Z,98335.05
2019-03-13T22:41:39.147Z,98332.05
2019-03-13T22:44:08.311Z,98339.36
2019-03-13T22:46:37.504Z,98338.84
2019-03-13T22:49:06.668Z,98331.91
2019-03-13T22:51:36.436Z,98341.14
2019-03-13T22:54:05.867Z,98340.67
2019-03-13T22:56:35.152Z,98344.22
2019-03-13T22:59:04.681Z,98349.55
2019-03-13T23:01:34.147Z,98356.66
2019-03-13T23:04:04.087Z,98353.73
2019-03-13T23:06:35.029Z,98366.92
2019-03-13T23:09:06.815Z,98356.74
2019-03-13T23:11:36.984Z,98367.52
2019-03-13T23:14:06.145Z,98362.75
2019-03-13T23:16:36.006Z,98357.67
2019-03-13T23:19:05.958Z,98374.32
2019-03-13T23:21:35.918Z,98369.55
2019-03-13T23:24:06.206Z,98377.41
2019-03-13T23:26:36.892Z,98371.45
2019-03-13T23:29:06.823Z,98370.14
2019-03-13T23:31:36.352Z,98380.25
2019-03-13T23:34:06.118Z,98377.54
2019-03-13T23:36:35.346Z,98383.16
2019-03-13T23:39:06.458Z,98390.09
2019-03-13T23:41:36.497Z,98391.19
2019-03-13T23:44:06.258Z,98390.94
2019-03-13T23:46:36.278Z,98394.88
2019-03-13T23:49:05.760Z,98395.72
2019-03-13T23:51:36.087Z,98406.45
2019-03-13T23:54:05.236Z,98413.00
2019-03-13T23:56:35.190Z,98419.93
2019-03-13T23:59:05.487Z,98427.25
